createdAt,value
2023-02-19T00:00:19.254Z,11.68
2023-02-19T00:02:45.470Z,11.70
2023-02-19T00:05:11.737Z,11.65
2023-02-19T00:07:38.055Z,11.58
2023-02-19T00:10:04.280Z,11.50
2023-02-19T00:12:30.449Z,11.42
2023-02-19T00:14:56.610Z,11.38
2023-02-19T00:17:22.793Z,11.34
2023-02-19T00:19:48.961Z,11.34
2023-02-19T00:22:15.176Z,11.32
2023-02-19T00:24:41.411Z,11.36
2023-02-19T00:27:07.637Z,11.38
2023-02-19T00:29:33.809Z,11.35
2023-02-19T00:32:00.184Z,11.42
2023-02-19T00:34:26.449Z,11.33
2023-02-19T00:36:52.688Z,11.32
2023-02-19T00:39:18.996Z,11.33
2023-02-19T00:41:45.176Z,11.28
2023-02-19T00:44:11.384Z,11.25
2023-02-19T00:46:37.641Z,11.13
2023-02-19T00:49:03.841Z,11.11
2023-02-19T00:51:30.069Z,11.13
2023-02-19T00:53:56.346Z,11.07
2023-02-19T00:56:22.575Z,11.05
2023-02-19T00:58:48.770Z,11.08
2023-02-19T01:01:15.007Z,11.13
2023-02-19T01:03:41.266Z,11.15
2023-02-19T01:06:07.559Z,11.01
2023-02-19T01:08:33.776Z,10.96
2023-02-19T01:10:59.943Z,10.89
2023-02-19T01:13:26.132Z,10.91
2023-02-19T01:15:52.324Z,10.99
2023-02-19T01:18:18.664Z,10.94
2023-02-19T01:20:44.875Z,11.02
2023-02-19T01:23:11.040Z,11.05
2023-02-19T01:25:37.292Z,11.09
2023-02-19T01:28:03.488Z,11.15
2023-02-19T01:30:29.722Z,11.19
2023-02-19T01:32:55.946Z,11.16
2023-02-19T01:35:22.178Z,11.17
2023-02-19T01:37:48.396Z,11.18
2023-02-19T01:40:14.596Z,11.20
2023-02-19T01:42:40.751Z,11.12
2023-02-19T01:45:06.964Z,11.17
2023-02-19T01:47:33.158Z,11.21
2023-02-19T01:49:59.356Z,11.23
2023-02-19T01:52:25.583Z,11.26
2023-02-19T01:54:51.789Z,11.33
2023-02-19T01:57:17.988Z,11.38
2023-02-19T01:59:44.168Z,11.41
2023-02-19T02:02:10.405Z,11.46
2023-02-19T02:04:36.629Z,11.51
2023-02-19T02:07:02.822Z,11.52
2023-02-19T02:09:29.090Z,11.51
2023-02-19T02:11:55.279Z,11.53
2023-02-19T02:14:21.443Z,11.60
2023-02-19T02:16:47.679Z,11.58
2023-02-19T02:19:13.901Z,11.60
2023-02-19T02:21:40.070Z,11.59
2023-02-19T02:24:06.323Z,11.56
2023-02-19T02:26:32.552Z,11.53
2023-02-19T02:28:58.743Z,11.56
2023-02-19T02:31:24.993Z,11.58
2023-02-19T02:33:51.216Z,11.60
2023-02-19T02:36:17.486Z,11.64
2023-02-19T02:38:43.658Z,11.70
2023-02-19T02:41:10.123Z,11.68
2023-02-19T02:43:36.531Z,11.63
2023-02-19T02:46:02.781Z,11.60
2023-02-19T02:48:29.020Z,11.57
2023-02-19T02:50:55.231Z,11.60
2023-02-19T02:53:21.446Z,11.60
2023-02-19T02:55:47.657Z,11.59
2023-02-19T02:58:13.885Z,11.63
2023-02-19T03:00:40.035Z,11.61
2023-02-19T03:03:06.240Z,11.61
2023-02-19T03:05:32.415Z,11.62
2023-02-19T03:07:58.601Z,11.58
2023-02-19T03:10:24.757Z,11.61
2023-02-19T03:12:50.922Z,11.69
2023-02-19T03:15:17.136Z,11.63
2023-02-19T03:17:43.342Z,11.57
2023-02-19T03:20:09.546Z,11.64
2023-02-19T03:22:35.788Z,11.64
2023-02-19T03:25:02.016Z,11.66
2023-02-19T03:27:28.220Z,11.65
2023-02-19T03:29:54.432Z,11.60
2023-02-19T03:32:20.742Z,11.62
2023-02-19T03:34:46.994Z,11.58
2023-02-19T03:37:13.183Z,11.59
2023-02-19T03:39:39.393Z,11.57
2023-02-19T03:42:05.635Z,11.52
2023-02-19T03:44:31.812Z,11.53
2023-02-19T03:46:58.034Z,11.51
2023-02-19T03:49:24.260Z,11.52
2023-02-19T03:51:50.485Z,11.48
2023-02-19T03:54:16.652Z,11.50
2023-02-19T03:56:42.816Z,11.48
2023-02-19T03:59:08.991Z,11.50
2023-02-19T04:01:35.152Z,11.53
2023-02-19T04:04:01.319Z,11.50
2023-02-19T04:06:27.526Z,11.51
2023-02-19T04:08:53.730Z,11.55
2023-02-19T04:11:19.970Z,11.54
2023-02-19T04:13:46.184Z,11.60
2023-02-19T04:16:12.414Z,11.67
2023-02-19T04:18:38.614Z,11.67
2023-02-19T04:21:04.784Z,11.66
2023-02-19T04:23:30.992Z,11.62
2023-02-19T04:25:57.209Z,11.65
2023-02-19T04:28:23.393Z,11.69
2023-02-19T04:30:49.569Z,11.64
2023-02-19T04:33:15.798Z,11.66
2023-02-19T04:35:42.055Z,11.64
2023-02-19T04:38:08.276Z,11.63
2023-02-19T04:40:34.485Z,11.59
2023-02-19T04:43:00.675Z,11.64
2023-02-19T04:45:26.835Z,11.61
2023-02-19T04:47:53.035Z,11.63
2023-02-19T04:50:19.260Z,11.63
2023-02-19T04:52:45.514Z,11.59
2023-02-19T04:55:11.726Z,11.53
2023-02-19T04:57:37.972Z,11.59
2023-02-19T05:00:04.158Z,11.58
2023-02-19T05:02:30.323Z,11.63
2023-02-19T05:04:56.535Z,11.63
2023-02-19T05:07:22.769Z,11.65
2023-02-19T05:09:48.923Z,11.68
2023-02-19T05:12:15.085Z,11.62
2023-02-19T05:14:41.305Z,11.59
2023-02-19T05:17:07.539Z,11.60
2023-02-19T05:19:33.742Z,11.63
2023-02-19T05:21:59.967Z,11.64
2023-02-19T05:24:26.156Z,11.69
2023-02-19T05:26:52.330Z,11.68
2023-02-19T05:29:18.492Z,11.68
2023-02-19T05:31:44.739Z,11.71
2023-02-19T05:34:10.973Z,11.73
2023-02-19T05:36:37.154Z,11.76
2023-02-19T05:39:03.321Z,11.72
2023-02-19T05:41:29.505Z,11.67
2023-02-19T05:43:55.696Z,11.71
2023-02-19T05:46:21.936Z,11.71
2023-02-19T05:48:48.196Z,11.69
2023-02-19T05:51:14.433Z,11.69
2023-02-19T05:53:40.607Z,11.68
2023-02-19T05:56:06.847Z,11.68
2023-02-19T05:58:33.037Z,11.70
2023-02-19T06:00:59.244Z,11.68
2023-02-19T06:03:25.595Z,11.61
2023-02-19T06:05:51.809Z,11.65
2023-02-19T06:08:18.119Z,11.65
2023-02-19T06:10:44.286Z,11.68
2023-02-19T06:13:10.489Z,11.70
2023-02-19T06:15:36.724Z,11.70
2023-02-19T06:18:02.897Z,11.64
2023-02-19T06:20:29.064Z,11.66
2023-02-19T06:22:55.265Z,11.63
2023-02-19T06:25:21.434Z,11.65
2023-02-19T06:27:47.643Z,11.69
2023-02-19T06:30:13.914Z,11.69
2023-02-19T06:32:40.087Z,11.73
2023-02-19T06:35:06.261Z,11.72
2023-02-19T06:37:32.477Z,11.73
2023-02-19T06:39:58.727Z,11.70
2023-02-19T06:42:24.930Z,11.66
2023-02-19T06:44:51.135Z,11.66
2023-02-19T06:47:17.334Z,11.66
2023-02-19T06:49:43.578Z,11.68
2023-02-19T06:52:09.751Z,11.77
2023-02-19T06:54:35.984Z,11.67
2023-02-19T06:57:02.157Z,11.70
2023-02-19T06:59:28.351Z,11.59
2023-02-19T07:01:54.512Z,11.56
2023-02-19T07:04:20.704Z,11.55
2023-02-19T07:06:46.927Z,11.56
2023-02-19T07:09:13.183Z,11.62
2023-02-19T07:11:39.361Z,11.62
2023-02-19T07:14:05.606Z,11.64
2023-02-19T07:16:31.975Z,11.67
2023-02-19T07:18:58.234Z,11.60
2023-02-19T07:21:24.459Z,11.58
2023-02-19T07:23:50.674Z,11.66
2023-02-19T07:26:16.857Z,11.70
2023-02-19T07:28:43.100Z,11.72
2023-02-19T07:31:09.859Z,11.74
2023-02-19T07:33:36.239Z,11.73
2023-02-19T07:36:02.416Z,11.72
2023-02-19T07:38:28.652Z,11.71
2023-02-19T07:40:54.878Z,11.72
2023-02-19T07:43:21.066Z,11.75
2023-02-19T07:45:47.280Z,11.75
2023-02-19T07:48:13.481Z,11.75
2023-02-19T07:50:39.667Z,11.75
2023-02-19T07:53:05.835Z,11.82
2023-02-19T07:55:31.989Z,11.87
2023-02-19T07:57:58.160Z,11.89
2023-02-19T08:00:24.371Z,11.90
2023-02-19T08:02:50.618Z,11.97
2023-02-19T08:05:16.844Z,11.96
2023-02-19T08:07:43.070Z,12.04
2023-02-19T08:10:09.294Z,11.98
2023-02-19T08:12:35.491Z,11.94
2023-02-19T08:15:01.698Z,11.95
2023-02-19T08:17:27.905Z,11.95
2023-02-19T08:19:54.150Z,11.94
2023-02-19T08:22:20.369Z,11.97
2023-02-19T08:24:46.592Z,12.00
2023-02-19T08:27:12.811Z,11.96
2023-02-19T08:29:39.046Z,12.02
2023-02-19T08:32:05.330Z,12.05
2023-02-19T08:34:31.512Z,12.03
2023-02-19T08:36:57.724Z,12.10
2023-02-19T08:39:23.898Z,12.12
2023-02-19T08:41:50.070Z,12.09
2023-02-19T08:44:16.301Z,12.13
2023-02-19T08:46:42.504Z,12.21
2023-02-19T08:49:08.690Z,12.28
2023-02-19T08:51:34.890Z,12.41
2023-02-19T08:54:01.095Z,12.42
2023-02-19T08:56:27.278Z,12.48
2023-02-19T08:58:53.469Z,12.57
2023-02-19T09:01:19.693Z,12.69
2023-02-19T09:03:45.908Z,12.68
2023-02-19T09:06:12.290Z,12.73
2023-02-19T09:08:38.619Z,12.75
2023-02-19T09:11:04.863Z,12.86
2023-02-19T09:13:31.092Z,12.90
2023-02-19T09:15:57.401Z,12.77
2023-02-19T09:18:23.620Z,12.81
2023-02-19T09:20:49.843Z,12.85
2023-02-19T09:23:16.044Z,12.83
2023-02-19T09:25:42.269Z,12.87
2023-02-19T09:28:08.431Z,13.04
2023-02-19T09:30:34.663Z,13.08
2023-02-19T09:33:00.955Z,13.15
2023-02-19T09:35:27.159Z,13.26
2023-02-19T09:37:53.324Z,13.57
2023-02-19T09:40:19.476Z,13.92
2023-02-19T09:42:45.690Z,14.54
2023-02-19T09:45:11.900Z,14.31
2023-02-19T09:47:38.079Z,14.33
2023-02-19T09:50:04.254Z,14.36
2023-02-19T09:52:30.463Z,14.23
2023-02-19T09:54:57.261Z,14.04
2023-02-19T09:57:23.531Z,13.86
2023-02-19T09:59:49.713Z,13.68
2023-02-19T10:02:15.919Z,13.71
2023-02-19T10:04:42.192Z,13.73
2023-02-19T10:07:08.405Z,13.76
2023-02-19T10:09:34.591Z,13.63
2023-02-19T10:12:00.816Z,13.63
2023-02-19T10:14:27.053Z,13.71
2023-02-19T10:16:53.253Z,13.89
2023-02-19T10:19:19.504Z,14.47
2023-02-19T10:21:45.684Z,14.66
2023-02-19T10:24:11.909Z,14.54
2023-02-19T10:26:38.152Z,14.65
2023-02-19T10:29:04.342Z,14.73
2023-02-19T10:31:30.634Z,14.82
2023-02-19T10:33:56.874Z,14.74
2023-02-19T10:36:23.079Z,15.24
2023-02-19T10:38:49.248Z,15.73
2023-02-19T10:41:15.428Z,15.73
2023-02-19T10:43:41.600Z,15.96
2023-02-19T10:46:07.828Z,17.90
2023-02-19T10:48:34.036Z,19.42
2023-02-19T10:51:00.242Z,19.87
2023-02-19T10:53:26.460Z,19.72
2023-02-19T10:55:52.685Z,19.15
2023-02-19T10:58:18.879Z,18.48
2023-02-19T11:00:45.084Z,17.87
2023-02-19T11:03:11.306Z,17.64
2023-02-19T11:05:37.536Z,17.05
2023-02-19T11:08:03.700Z,16.57
2023-02-19T11:10:29.874Z,16.06
2023-02-19T11:12:56.042Z,15.69
2023-02-19T11:15:22.218Z,15.43
2023-02-19T11:17:48.432Z,15.10
2023-02-19T11:20:14.600Z,14.93
2023-02-19T11:22:40.781Z,14.84
2023-02-19T11:25:06.937Z,14.75
2023-02-19T11:27:33.104Z,14.60
2023-02-19T11:29:59.338Z,14.59
2023-02-19T11:32:25.665Z,14.60
2023-02-19T11:34:51.987Z,14.41
2023-02-19T11:37:18.184Z,14.47
2023-02-19T11:39:44.346Z,14.57
2023-02-19T11:42:10.546Z,14.58
2023-02-19T11:44:36.742Z,14.54
2023-02-19T11:47:03.022Z,14.48
2023-02-19T11:49:29.185Z,14.68
2023-02-19T11:51:55.397Z,14.84
2023-02-19T11:54:21.584Z,14.79
2023-02-19T11:56:47.771Z,14.94
2023-02-19T11:59:13.948Z,14.85
2023-02-19T12:01:40.124Z,14.87
2023-02-19T12:04:06.309Z,14.89
2023-02-19T12:06:32.472Z,14.86
2023-02-19T12:08:58.668Z,14.98
2023-02-19T12:11:24.827Z,15.16
2023-02-19T12:13:51.094Z,14.91
2023-02-19T12:16:17.365Z,14.98
2023-02-19T12:18:43.610Z,15.03
2023-02-19T12:21:09.988Z,15.08
2023-02-19T12:23:36.328Z,15.04
2023-02-19T12:26:02.537Z,15.07
2023-02-19T12:28:28.732Z,15.01
2023-02-19T12:30:54.942Z,15.35
2023-02-19T12:33:21.189Z,15.57
2023-02-19T12:35:47.416Z,15.54
2023-02-19T12:38:13.621Z,15.33
2023-02-19T12:40:39.833Z,15.30
2023-02-19T12:43:06.016Z,15.23
2023-02-19T12:45:32.171Z,15.21
2023-02-19T12:47:58.387Z,15.37
2023-02-19T12:50:24.570Z,15.26
2023-02-19T12:52:50.771Z,15.28
2023-02-19T12:55:17.173Z,15.56
2023-02-19T12:57:43.346Z,15.88
2023-02-19T13:00:09.547Z,16.04
2023-02-19T13:02:35.768Z,16.35
2023-02-19T13:05:01.954Z,16.93
2023-02-19T13:07:28.134Z,16.98
2023-02-19T13:09:54.312Z,16.71
2023-02-19T13:12:20.528Z,16.57
2023-02-19T13:14:46.702Z,16.84
2023-02-19T13:17:12.938Z,17.36
2023-02-19T13:19:39.207Z,17.33
2023-02-19T13:22:05.428Z,17.60
2023-02-19T13:24:31.614Z,17.89
2023-02-19T13:26:57.820Z,18.12
2023-02-19T13:29:24.000Z,18.29
2023-02-19T13:31:50.319Z,18.51
2023-02-19T13:34:16.564Z,18.71
2023-02-19T13:36:42.778Z,18.71
2023-02-19T13:39:08.960Z,18.95
2023-02-19T13:41:35.138Z,19.16
2023-02-19T13:44:01.349Z,18.88
2023-02-19T13:46:27.535Z,18.88
2023-02-19T13:48:53.777Z,18.65
2023-02-19T13:51:20.002Z,18.05
2023-02-19T13:53:46.190Z,17.94
2023-02-19T13:56:12.391Z,17.84
2023-02-19T13:58:38.573Z,17.67
2023-02-19T14:01:04.781Z,17.60
2023-02-19T14:03:31.001Z,17.44
2023-02-19T14:05:57.254Z,17.41
2023-02-19T14:08:23.470Z,17.08
2023-02-19T14:10:49.692Z,16.97
2023-02-19T14:13:15.910Z,16.98
2023-02-19T14:15:42.140Z,16.96
2023-02-19T14:18:08.344Z,16.78
2023-02-19T14:20:34.550Z,16.85
2023-02-19T14:23:00.771Z,16.63
2023-02-19T14:25:27.011Z,16.44
2023-02-19T14:27:53.204Z,16.21
2023-02-19T14:30:19.451Z,16.05
2023-02-19T14:32:51.006Z,16.07
2023-02-19T14:35:17.435Z,16.16
2023-02-19T14:37:43.604Z,16.17
2023-02-19T14:40:09.768Z,15.98
2023-02-19T14:42:35.978Z,15.94
2023-02-19T14:45:02.144Z,15.81
2023-02-19T14:47:28.329Z,15.68
2023-02-19T14:49:54.501Z,15.54
2023-02-19T14:52:20.712Z,15.39
2023-02-19T14:54:46.875Z,15.33
2023-02-19T14:57:13.172Z,15.30
2023-02-19T14:59:39.332Z,15.28
2023-02-19T15:02:05.548Z,15.13
2023-02-19T15:04:31.820Z,15.05
2023-02-19T15:06:58.021Z,14.92
2023-02-19T15:09:24.281Z,14.91
2023-02-19T15:11:50.500Z,15.01
2023-02-19T15:14:16.737Z,15.03
2023-02-19T15:16:42.925Z,15.02
2023-02-19T15:19:09.135Z,15.12
2023-02-19T15:21:35.370Z,15.23
2023-02-19T15:24:01.549Z,15.26
2023-02-19T15:26:27.708Z,15.23
2023-02-19T15:28:53.880Z,15.17
2023-02-19T15:31:20.162Z,15.17
2023-02-19T15:33:46.474Z,15.18
2023-02-19T15:36:12.717Z,15.17
2023-02-19T15:38:38.939Z,15.05
2023-02-19T15:41:05.295Z,14.93
2023-02-19T15:43:31.470Z,14.87
2023-02-19T15:45:57.668Z,14.72
2023-02-19T15:48:23.905Z,14.71
2023-02-19T15:50:50.093Z,14.66
2023-02-19T15:53:16.304Z,14.68
2023-02-19T15:55:42.524Z,14.65
2023-02-19T15:58:08.769Z,14.53
2023-02-19T16:00:34.994Z,14.41
2023-02-19T16:03:01.240Z,14.28
2023-02-19T16:05:27.482Z,14.26
2023-02-19T16:07:53.776Z,14.26
2023-02-19T16:10:19.965Z,14.21
2023-02-19T16:12:46.142Z,14.08
2023-02-19T16:15:12.398Z,13.98
2023-02-19T16:17:38.570Z,14.00
2023-02-19T16:20:04.780Z,14.02
2023-02-19T16:22:31.156Z,14.04
2023-02-19T16:24:57.345Z,14.06
2023-02-19T16:27:23.494Z,13.97
2023-02-19T16:29:49.653Z,13.94
2023-02-19T16:32:15.949Z,13.99
2023-02-19T16:34:42.170Z,13.94
2023-02-19T16:37:08.398Z,13.98
2023-02-19T16:39:34.610Z,13.93
2023-02-19T16:42:00.791Z,13.88
2023-02-19T16:44:26.960Z,13.79
2023-02-19T16:46:53.140Z,13.74
2023-02-19T16:49:19.318Z,13.64
2023-02-19T16:51:45.502Z,13.56
2023-02-19T16:54:11.657Z,13.52
2023-02-19T16:56:37.806Z,13.49
2023-02-19T16:59:03.980Z,13.46
2023-02-19T17:01:30.215Z,13.38
2023-02-19T17:03:56.525Z,13.35
2023-02-19T17:06:22.726Z,13.31
2023-02-19T17:08:48.927Z,13.24
2023-02-19T17:11:15.126Z,13.26
2023-02-19T17:13:41.276Z,13.24
2023-02-19T17:16:07.451Z,13.25
2023-02-19T17:18:33.623Z,13.19
2023-02-19T17:20:59.835Z,13.14
2023-02-19T17:23:26.008Z,13.08
2023-02-19T17:25:52.242Z,13.02
2023-02-19T17:28:18.460Z,12.94
2023-02-19T17:30:44.666Z,12.92
2023-02-19T17:33:10.878Z,12.93
2023-02-19T17:35:37.050Z,12.98
2023-02-19T17:38:03.249Z,12.89
2023-02-19T17:40:33.864Z,12.81
2023-02-19T17:43:00.230Z,12.82
2023-02-19T17:45:26.449Z,12.82
2023-02-19T17:47:52.660Z,12.78
2023-02-19T17:50:18.886Z,12.75
2023-02-19T17:52:45.079Z,12.72
2023-02-19T17:55:11.275Z,12.75
2023-02-19T17:57:37.444Z,12.70
2023-02-19T18:00:03.607Z,12.63
2023-02-19T18:02:29.810Z,12.64
2023-02-19T18:04:56.000Z,12.63
2023-02-19T18:07:22.167Z,12.64
2023-02-19T18:09:48.367Z,12.67
2023-02-19T18:12:14.592Z,12.61
2023-02-19T18:14:40.804Z,12.55
2023-02-19T18:17:06.966Z,12.50
2023-02-19T18:19:33.133Z,12.48
2023-02-19T18:21:59.309Z,12.44
2023-02-19T18:24:25.485Z,12.39
2023-02-19T18:26:51.711Z,12.41
2023-02-19T18:29:17.911Z,12.43
2023-02-19T18:31:44.159Z,12.42
2023-02-19T18:34:10.464Z,12.42
2023-02-19T18:36:36.684Z,12.39
2023-02-19T18:39:02.913Z,12.36
2023-02-19T18:41:29.071Z,12.35
2023-02-19T18:43:55.229Z,12.37
2023-02-19T18:46:21.438Z,12.35
2023-02-19T18:48:47.683Z,12.32
2023-02-19T18:51:14.028Z,12.32
2023-02-19T18:53:40.292Z,12.34
2023-02-19T18:56:06.495Z,12.28
2023-02-19T18:58:32.722Z,12.27
2023-02-19T19:00:58.886Z,12.24
2023-02-19T19:03:25.107Z,12.17
2023-02-19T19:05:51.258Z,12.15
2023-02-19T19:08:17.473Z,12.16
2023-02-19T19:10:43.636Z,12.13
2023-02-19T19:13:09.834Z,12.10
2023-02-19T19:15:36.093Z,12.07
2023-02-19T19:18:02.323Z,12.08
2023-02-19T19:20:28.555Z,12.03
2023-02-19T19:22:54.770Z,11.99
2023-02-19T19:25:20.945Z,11.94
2023-02-19T19:27:47.118Z,11.91
2023-02-19T19:30:13.333Z,11.83
2023-02-19T19:32:40.083Z,11.85
2023-02-19T19:35:06.371Z,11.82
2023-02-19T19:37:32.587Z,11.84
2023-02-19T19:39:58.748Z,11.86
2023-02-19T19:42:24.925Z,11.82
2023-02-19T19:44:51.119Z,11.81
2023-02-19T19:47:17.352Z,11.79
2023-02-19T19:49:43.512Z,11.78
2023-02-19T19:52:09.728Z,11.77
2023-02-19T19:54:35.936Z,11.74
2023-02-19T19:57:02.119Z,11.70
2023-02-19T19:59:28.321Z,11.67
2023-02-19T20:01:54.529Z,11.69
2023-02-19T20:04:20.755Z,11.74
2023-02-19T20:06:47.000Z,11.71
2023-02-19T20:09:13.177Z,11.64
2023-02-19T20:11:39.390Z,11.64
2023-02-19T20:14:05.566Z,11.62
2023-02-19T20:16:31.762Z,11.60
2023-02-19T20:18:57.919Z,11.58
2023-02-19T20:21:24.093Z,11.56
2023-02-19T20:23:50.294Z,11.53
2023-02-19T20:26:16.457Z,11.51
2023-02-19T20:28:42.602Z,11.54
2023-02-19T20:31:09.063Z,11.49
2023-02-19T20:33:35.264Z,11.48
2023-02-19T20:36:01.465Z,11.45
2023-02-19T20:38:27.682Z,11.45
2023-02-19T20:40:53.907Z,11.41
2023-02-19T20:43:20.121Z,11.38
2023-02-19T20:45:46.293Z,11.26
2023-02-19T20:48:12.450Z,11.21
2023-02-19T20:50:38.657Z,11.18
2023-02-19T20:53:04.904Z,11.21
2023-02-19T20:55:31.124Z,11.19
2023-02-19T20:57:57.312Z,11.21
2023-02-19T21:00:23.498Z,11.18
2023-02-19T21:02:49.795Z,11.15
2023-02-19T21:05:16.027Z,11.14
2023-02-19T21:07:42.239Z,11.15
2023-02-19T21:10:08.556Z,11.14
2023-02-19T21:12:34.746Z,11.13
2023-02-19T21:15:00.947Z,11.13
2023-02-19T21:17:27.167Z,11.11
2023-02-19T21:19:53.328Z,11.15
2023-02-19T21:22:19.483Z,11.07
2023-02-19T21:24:45.685Z,11.07
2023-02-19T21:27:11.902Z,11.06
2023-02-19T21:29:38.114Z,11.06
2023-02-19T21:32:04.423Z,11.07
2023-02-19T21:34:30.719Z,11.03
2023-02-19T21:36:56.910Z,10.98
2023-02-19T21:39:23.132Z,11.00
2023-02-19T21:41:49.312Z,10.96
2023-02-19T21:44:15.508Z,11.00
2023-02-19T21:46:41.711Z,10.99
2023-02-19T21:49:07.998Z,11.00
2023-02-19T21:51:34.206Z,10.98
2023-02-19T21:54:00.353Z,10.94
2023-02-19T21:56:26.584Z,10.95
2023-02-19T21:58:52.770Z,10.96
2023-02-19T22:01:18.962Z,10.97
2023-02-19T22:03:45.155Z,10.96
2023-02-19T22:06:11.617Z,10.87
2023-02-19T22:08:38.012Z,10.88
2023-02-19T22:11:04.233Z,10.75
2023-02-19T22:13:30.428Z,10.67
2023-02-19T22:15:56.583Z,10.64
2023-02-19T22:18:22.794Z,10.68
2023-02-19T22:20:49.023Z,10.76
2023-02-19T22:23:15.252Z,10.74
2023-02-19T22:25:41.475Z,10.69
2023-02-19T22:28:07.640Z,10.72
2023-02-19T22:30:33.837Z,10.70
2023-02-19T22:33:00.062Z,10.69
2023-02-19T22:35:26.280Z,10.67
2023-02-19T22:37:52.505Z,10.65
2023-02-19T22:40:18.655Z,10.60
2023-02-19T22:42:44.854Z,10.57
2023-02-19T22:45:11.072Z,10.50
2023-02-19T22:47:37.280Z,10.41
2023-02-19T22:50:03.454Z,10.41
2023-02-19T22:52:29.615Z,10.43
2023-02-19T22:54:55.782Z,10.43
2023-02-19T22:57:22.012Z,10.44
2023-02-19T22:59:48.203Z,10.44
2023-02-19T23:02:14.355Z,10.44
2023-02-19T23:04:40.503Z,10.42
2023-02-19T23:07:06.669Z,10.36
2023-02-19T23:09:32.877Z,10.32
2023-02-19T23:11:59.041Z,10.30
2023-02-19T23:14:25.210Z,10.37
2023-02-19T23:16:51.434Z,10.37
2023-02-19T23:19:17.659Z,10.32
2023-02-19T23:21:43.918Z,10.27
2023-02-19T23:24:10.142Z,10.25
2023-02-19T23:26:36.363Z,10.24
2023-02-19T23:29:02.592Z,10.27
2023-02-19T23:31:28.832Z,10.27
2023-02-19T23:33:55.006Z,10.34
2023-02-19T23:36:21.172Z,10.34
2023-02-19T23:38:47.393Z,10.31
2023-02-19T23:41:13.547Z,10.35
2023-02-19T23:43:39.723Z,10.38
2023-02-19T23:46:06.002Z,10.38
2023-02-19T23:48:32.234Z,10.37
2023-02-19T23:50:58.399Z,10.39
2023-02-19T23:53:24.558Z,10.37
2023-02-19T23:55:50.709Z,10.40
2023-02-19T23:58:16.905Z,10.39
